Time;durP1;ratioP1;P1;durP2;ratioP2;P2;SDS_P1;SDS_P2;PMS_P1;PMS_P2;Temp;Humidity;BMP_temperature;BMP_pressure;BME280_temperature;BME280_humidity;BME280_pressure;Samples;Min_cycle;Max_cycle;Signal;HPM_P1;HPM_P2
2021/10/10 00:00:43;;;;;;;;;58.75;44.75;;;;;13.11;71.02;102355.97;4953244;28;60764;-79
2021/10/10 00:03:09;;;;;;;;;54.00;43.50;;;;;13.10;70.72;102353.28;4955687;28;49818;-76
2021/10/10 00:05:34;;;;;;;;;59.00;45.00;;;;;13.10;70.72;102353.28;4939045;28;54951;-79
2021/10/10 00:07:59;;;;;;;;;53.25;43.50;;;;;13.13;71.17;102357.75;4955723;28;59022;-76
2021/10/10 00:10:25;;;;;;;;;54.00;43.50;;;;;13.13;70.76;102352.47;4938414;28;58983;-76
2021/10/10 00:12:50;;;;;;;;;53.75;41.00;;;;;13.11;70.67;102355.09;4939694;28;45684;-79
2021/10/10 00:15:16;;;;;;;;;57.75;45.00;;;;;13.10;70.78;102358.56;4956425;28;45456;-76
2021/10/10 00:17:41;;;;;;;;;62.25;47.75;;;;;13.05;70.87;102342.56;4955975;28;45622;-77
2021/10/10 00:20:07;;;;;;;;;55.25;43.50;;;;;13.08;70.88;102358.53;4956107;28;45404;-77
2021/10/10 00:22:33;;;;;;;;;53.25;43.75;;;;;13.06;70.78;102352.31;4957074;28;45309;-77
2021/10/10 00:24:58;;;;;;;;;56.00;46.00;;;;;13.03;71.11;102348.69;4956880;28;45320;-76
2021/10/10 00:27:24;;;;;;;;;56.50;44.00;;;;;13.00;71.11;102344.22;4955643;28;51804;-76
2021/10/10 00:29:50;;;;;;;;;53.50;43.75;;;;;13.03;70.81;102348.69;4939078;28;52683;-80
2021/10/10 00:32:15;;;;;;;;;52.50;43.75;;;;;13.02;70.98;102355.75;4955958;28;45573;-80
2021/10/10 00:34:41;;;;;;;;;58.50;45.00;;;;;12.99;70.77;102353.00;4955784;28;45463;-80
2021/10/10 00:37:06;;;;;;;;;55.75;44.50;;;;;12.97;70.78;102349.41;4955787;28;56943;-79
2021/10/10 00:39:31;;;;;;;;;57.25;45.75;;;;;12.91;70.85;102341.31;4955297;28;55826;-80
2021/10/10 00:41:57;;;;;;;;;51.75;43.00;;;;;12.92;70.88;102350.16;4955881;28;45544;-81
2021/10/10 00:44:23;;;;;;;;;54.00;44.25;;;;;12.90;70.85;102351.91;4956140;28;46182;-76
2021/10/10 00:46:48;;;;;;;;;56.50;44.75;;;;;12.89;70.79;102355.38;4955966;28;45637;-76
2021/10/10 00:49:14;;;;;;;;;56.00;44.00;;;;;12.85;70.87;102351.78;4922847;28;45933;-79
2021/10/10 00:51:40;;;;;;;;;55.25;42.50;;;;;12.84;70.79;102352.63;4955750;28;53913;-76
2021/10/10 00:54:05;;;;;;;;;53.00;43.75;;;;;12.83;70.68;102342.84;4938765;28;45400;-76
2021/10/10 00:56:31;;;;;;;;;53.50;43.00;;;;;12.74;70.61;102335.59;4956249;28;46407;-76
2021/10/10 00:58:57;;;;;;;;;53.75;43.50;;;;;12.76;70.78;102343.56;4937906;28;45488;-76
2021/10/10 01:01:22;;;;;;;;;60.25;45.25;;;;;12.71;70.67;102340.78;4956147;28;45220;-79
2021/10/10 01:03:48;;;;;;;;;54.75;44.00;;;;;12.71;70.69;102347.84;4938734;28;46867;-75
2021/10/10 01:06:14;;;;;;;;;54.50;43.00;;;;;12.69;70.81;102349.56;4954925;28;60573;-81
2021/10/10 01:08:39;;;;;;;;;58.00;45.50;;;;;12.67;70.80;102349.50;4933453;28;45442;-76
2021/10/10 01:11:04;;;;;;;;;59.00;45.00;;;;;12.65;71.04;102345.03;4938668;28;45209;-76
2021/10/10 01:13:30;;;;;;;;;62.75;46.00;;;;;12.63;70.61;102354.72;4937885;28;53343;-82
2021/10/10 01:15:55;;;;;;;;;54.75;45.25;;;;;12.56;71.09;102346.56;4937892;28;61416;-76
2021/10/10 01:18:24;;;;;;;;;53.75;41.75;;;;;12.58;70.84;102350.19;4938543;28;45440;-80
2021/10/10 01:20:50;;;;;;;;;56.50;40.25;;;;;12.57;71.08;102350.16;4955647;28;45538;-76
2021/10/10 01:23:15;;;;;;;;;56.75;44.25;;;;;12.51;70.95;102345.53;4956049;28;45580;-76
2021/10/10 01:25:41;;;;;;;;;57.75;43.00;;;;;12.52;70.76;102349.13;4951736;28;45500;-78
2021/10/10 01:28:06;;;;;;;;;61.75;45.25;;;;;12.50;70.77;102332.28;5002547;28;45436;-76
2021/10/10 01:30:32;;;;;;;;;57.00;44.25;;;;;12.49;71.01;102347.28;4955704;28;45527;-79
2021/10/10 01:32:58;;;;;;;;;58.25;45.00;;;;;12.46;70.89;102335.69;4955064;28;45499;-76
2021/10/10 01:35:24;;;;;;;;;51.25;39.75;;;;;12.46;70.91;102339.22;4954477;28;47656;-78
2021/10/10 01:37:49;;;;;;;;;58.00;44.50;;;;;12.43;70.99;102336.50;4938567;28;45361;-77
2021/10/10 01:40:15;;;;;;;;;57.25;45.50;;;;;12.41;70.91;102342.59;4921882;28;53046;-76
2021/10/10 01:42:40;;;;;;;;;56.50;45.50;;;;;12.38;70.85;102340.78;4908225;28;45496;-76
2021/10/10 01:45:16;;;;;;;;;58.00;46.00;;;;;12.28;70.97;102321.09;5021640;28;60849;-76
2021/10/10 01:47:41;;;;;;;;;52.00;43.50;;;;;12.31;70.80;102330.88;4955240;28;45248;-76
2021/10/10 01:50:07;;;;;;;;;53.50;41.75;;;;;12.32;70.95;102341.50;4938366;28;45487;-82
2021/10/10 01:52:32;;;;;;;;;54.25;42.00;;;;;12.28;70.95;102329.03;4938282;28;45371;-78
2021/10/10 01:54:58;;;;;;;;;54.75;44.25;;;;;12.27;70.70;102321.94;4954321;28;60801;-78
2021/10/10 01:57:23;;;;;;;;;55.50;44.75;;;;;12.27;70.74;102335.19;4923600;28;48084;-79
2021/10/10 01:59:49;;;;;;;;;57.00;43.00;;;;;12.26;70.86;102329.84;4954347;28;45692;-79
2021/10/10 02:02:14;;;;;;;;;56.50;42.75;;;;;12.23;70.64;102327.09;4954997;28;52236;-81
2021/10/10 02:04:39;;;;;;;;;57.25;42.25;;;;;12.22;70.71;102327.97;4937280;28;59110;-78
2021/10/10 02:07:05;;;;;;;;;56.75;44.25;;;;;12.22;70.66;102328.88;4951025;28;45434;-78
2021/10/10 02:09:30;;;;;;;;;55.25;44.50;;;;;12.19;70.77;102336.72;4954708;28;49787;-81
2021/10/10 02:11:56;;;;;;;;;59.50;45.50;;;;;12.13;70.63;102323.28;4954843;28;45581;-79
2021/10/10 02:14:21;;;;;;;;;56.00;45.00;;;;;12.16;70.69;102325.16;4954435;28;61253;-78
2021/10/10 02:16:46;;;;;;;;;58.75;43.75;;;;;12.14;70.56;102321.53;4937492;28;54980;-81
2021/10/10 02:19:12;;;;;;;;;56.75;45.50;;;;;12.11;70.80;102321.47;4954821;28;53321;-79
2021/10/10 02:21:37;;;;;;;;;59.50;43.00;;;;;12.10;70.76;102331.16;4954786;28;47411;-78
2021/10/10 02:24:03;;;;;;;;;53.75;42.50;;;;;12.07;70.69;102325.78;4954773;28;51468;-79
2021/10/10 02:26:28;;;;;;;;;54.75;41.50;;;;;12.06;70.71;102339.88;4953916;28;45469;-78
2021/10/10 02:28:54;;;;;;;;;63.00;46.00;;;;;12.04;70.91;102336.28;4955290;28;45561;-78
2021/10/10 02:31:19;;;;;;;;;56.50;42.75;;;;;12.02;70.77;102336.22;4954741;28;45518;-78
2021/10/10 02:33:44;;;;;;;;;59.50;43.00;;;;;12.02;70.92;102336.22;4936936;28;61430;-83
2021/10/10 02:36:10;;;;;;;;;56.75;44.75;;;;;12.01;70.82;102338.84;4954173;28;55801;-79
2021/10/10 02:38:36;;;;;;;;;55.25;44.25;;;;;12.00;71.01;102337.94;4937905;28;45801;-79
2021/10/10 02:41:01;;;;;;;;;60.75;46.50;;;;;11.96;70.84;102333.41;4954421;28;52892;-80
2021/10/10 02:43:26;;;;;;;;;60.25;47.50;;;;;11.96;71.06;102328.09;4953787;28;63604;-78
2021/10/10 02:45:52;;;;;;;;;57.75;46.25;;;;;11.97;70.89;102344.88;4955330;28;45267;-82
2021/10/10 02:48:17;;;;;;;;;56.75;46.75;;;;;11.93;70.71;102330.69;4954350;28;45269;-82
2021/10/10 02:50:43;;;;;;;;;55.50;41.25;;;;;11.95;70.70;102336.00;4937513;28;45421;-80
2021/10/10 02:53:08;;;;;;;;;57.25;45.25;;;;;11.93;70.75;102329.75;4936881;28;45309;-78
2021/10/10 02:55:33;;;;;;;;;54.50;41.25;;;;;11.86;70.87;102326.03;4955203;28;45346;-79
2021/10/10 02:57:59;;;;;;;;;52.50;42.25;;;;;11.90;70.87;102335.88;4954082;28;55841;-78
2021/10/10 03:00:24;;;;;;;;;53.50;42.00;;;;;11.87;70.79;102333.13;4937229;28;45664;-82
2021/10/10 03:02:50;;;;;;;;;63.00;44.75;;;;;11.88;70.94;102334.00;4954878;28;45606;-79
2021/10/10 03:05:15;;;;;;;;;58.00;43.00;;;;;11.83;70.87;102315.38;4953874;28;53850;-78
2021/10/10 03:07:40;;;;;;;;;64.50;45.25;;;;;11.87;71.36;102329.59;4953748;28;52009;-78
2021/10/10 03:10:06;;;;;;;;;57.75;43.75;;;;;11.88;71.53;102332.31;4921748;28;54716;-79
2021/10/10 03:12:32;;;;;;;;;57.75;46.00;;;;;11.89;71.24;102334.09;4936432;28;47265;-77
2021/10/10 03:14:57;;;;;;;;;61.75;47.50;;;;;11.88;71.42;102331.38;4954476;28;57062;-81
2021/10/10 03:17:22;;;;;;;;;54.75;42.25;;;;;11.91;71.65;102332.38;4936216;28;47271;-79
2021/10/10 03:19:48;;;;;;;;;59.25;46.75;;;;;11.95;71.78;102330.72;4954957;28;45352;-79
2021/10/10 03:22:13;;;;;;;;;60.00;46.25;;;;;11.91;71.67;102327.06;4936664;28;59984;-78
2021/10/10 03:24:39;;;;;;;;;55.25;43.50;;;;;11.95;71.71;102334.25;4936003;28;54536;-81
2021/10/10 03:27:04;;;;;;;;;57.50;41.25;;;;;11.93;71.90;102328.03;4954370;28;52581;-81
2021/10/10 03:29:29;;;;;;;;;50.75;41.25;;;;;11.96;71.67;102341.34;4928037;28;52180;-78
2021/10/10 03:31:55;;;;;;;;;57.25;44.75;;;;;11.98;71.36;102328.16;4954031;28;54577;-83
2021/10/10 03:34:20;;;;;;;;;59.25;45.25;;;;;11.97;71.63;102339.59;4953755;28;55149;-78
2021/10/10 03:36:45;;;;;;;;;53.50;43.75;;;;;11.97;71.33;102336.94;4952700;28;46954;-82
2021/10/10 03:39:11;;;;;;;;;57.25;43.00;;;;;11.86;71.39;102319.84;4937163;28;47597;-82
2021/10/10 03:41:36;;;;;;;;;50.25;41.25;;;;;11.91;71.35;102329.72;4936733;28;47932;-79
2021/10/10 03:44:02;;;;;;;;;55.00;40.75;;;;;11.86;71.27;102331.34;4953416;28;45341;-79
2021/10/10 03:46:27;;;;;;;;;57.00;44.00;;;;;11.88;71.45;102329.66;4954101;28;49901;-79
2021/10/10 03:48:52;;;;;;;;;56.75;44.00;;;;;11.84;71.15;102319.81;4953595;28;48360;-80
2021/10/10 03:51:18;;;;;;;;;48.25;41.75;;;;;11.83;71.34;102320.69;4952442;28;60065;-79
2021/10/10 03:56:14;;;;;;;;;55.75;42.50;;;;;11.83;71.40;102333.00;4954080;28;45364;-81
2021/10/10 03:58:40;;;;;;;;;54.00;42.50;;;;;11.79;71.21;102318.75;4954026;28;45555;-78
2021/10/10 04:01:05;;;;;;;;;51.00;40.75;;;;;11.78;71.30;102323.16;4953021;28;46987;-79
2021/10/10 04:03:31;;;;;;;;;50.00;41.25;;;;;11.80;71.53;102333.78;4936831;28;45468;-83
2021/10/10 04:05:57;;;;;;;;;54.00;39.50;;;;;11.78;71.68;102322.25;4953493;28;45369;-80
2021/10/10 04:08:22;;;;;;;;;57.50;44.25;;;;;11.81;71.60;102332.91;4949675;28;45404;-80
2021/10/10 04:10:47;;;;;;;;;56.75;41.75;;;;;11.82;71.44;102332.09;4953197;28;61469;-80
2021/10/10 04:13:13;;;;;;;;;60.00;45.00;;;;;11.82;71.64;102329.44;4935482;28;49397;-81
2021/10/10 04:15:38;;;;;;;;;56.00;43.50;;;;;11.82;71.46;102336.50;4953546;28;53840;-83
2021/10/10 04:18:04;;;;;;;;;55.25;39.50;;;;;11.82;71.44;102336.50;4953840;28;45320;-81
2021/10/10 04:20:29;;;;;;;;;58.00;43.00;;;;;11.78;71.61;102344.31;4936073;28;47441;-79
2021/10/10 04:22:55;;;;;;;;;54.00;44.50;;;;;11.73;71.42;102338.00;4952283;28;58652;-77
2021/10/10 04:25:20;;;;;;;;;55.25;41.50;;;;;11.73;71.18;102351.22;4952993;28;55818;-79
2021/10/10 04:27:45;;;;;;;;;55.00;43.50;;;;;11.72;71.63;102345.88;4920491;28;45254;-85
2021/10/10 04:30:13;;;;;;;;;52.50;41.50;;;;;11.73;71.56;102339.75;4935523;28;46305;-83
2021/10/10 04:32:39;;;;;;;;;54.75;43.25;;;;;11.69;71.49;102335.19;4952528;28;45302;-83
2021/10/10 04:35:05;;;;;;;;;56.00;42.75;;;;;11.71;71.46;102344.06;4953189;28;45531;-79
2021/10/10 04:37:30;;;;;;;;;62.25;45.00;;;;;11.70;71.44;102344.94;4936292;28;45270;-81
2021/10/10 04:39:56;;;;;;;;;54.50;41.50;;;;;11.68;71.53;102347.53;4953091;28;45434;-79
2021/10/10 04:42:21;;;;;;;;;55.50;44.50;;;;;11.67;71.16;102345.75;4952640;28;55902;-83
2021/10/10 04:44:46;;;;;;;;;56.50;41.75;;;;;11.64;71.21;102357.97;4952186;28;45275;-79
2021/10/10 04:47:12;;;;;;;;;53.00;40.75;;;;;11.59;70.97;102349.88;4934975;28;56479;-81
2021/10/10 04:49:37;;;;;;;;;60.25;43.75;;;;;11.54;71.07;102339.16;4954311;28;59109;-82
2021/10/10 04:52:03;;;;;;;;;56.75;41.75;;;;;11.54;71.09;102344.44;4927142;28;46670;-83
2021/10/10 04:54:29;;;;;;;;;60.75;44.75;;;;;11.52;71.31;102343.50;4954071;28;46201;-80
2021/10/10 04:56:55;;;;;;;;;54.00;43.00;;;;;11.55;71.65;102338.28;4956055;28;45348;-78
2021/10/10 04:59:20;;;;;;;;;53.75;44.25;;;;;11.58;71.45;102339.25;4923018;28;46354;-84
2021/10/10 05:01:45;;;;;;;;;58.00;45.75;;;;;11.57;71.23;102337.47;4937701;28;57162;-81
2021/10/10 05:04:11;;;;;;;;;56.00;42.25;;;;;11.54;71.26;102331.22;4955718;28;45271;-80
2021/10/10 05:06:36;;;;;;;;;56.25;44.75;;;;;11.54;71.14;102347.09;4955668;28;53077;-81
2021/10/10 05:09:01;;;;;;;;;56.00;44.25;;;;;11.46;71.19;102334.50;4952400;28;56931;-83
2021/10/10 05:11:27;;;;;;;;;53.00;42.75;;;;;11.48;71.17;102344.25;4956319;28;45377;-79
2021/10/10 05:13:52;;;;;;;;;56.50;43.50;;;;;11.43;71.03;102340.56;4937946;28;50968;-85
2021/10/10 05:16:18;;;;;;;;;61.00;46.00;;;;;11.39;71.21;102335.13;4938320;28;50890;-78
2021/10/10 05:18:43;;;;;;;;;56.50;43.75;;;;;11.41;71.14;102344.94;4955725;28;50118;-84
2021/10/10 05:21:08;;;;;;;;;61.25;44.25;;;;;11.35;71.05;102335.91;4922346;28;55831;-79
2021/10/10 05:23:34;;;;;;;;;54.75;43.50;;;;;11.38;71.04;102347.47;4955344;28;53546;-81
2021/10/10 05:26:00;;;;;;;;;56.75;41.75;;;;;11.35;70.84;102347.38;4955581;28;50940;-80
2021/10/10 05:28:26;;;;;;;;;61.25;44.25;;;;;11.31;71.11;102337.53;4948693;28;46811;-83
2021/10/10 05:30:51;;;;;;;;;46.25;39.75;;;;;11.28;70.86;102343.63;4937197;28;45330;-80
2021/10/10 05:33:18;;;;;;;;;56.75;41.75;;;;;11.28;70.81;102346.25;4931557;28;45559;-79
2021/10/10 05:35:43;;;;;;;;;56.25;43.50;;;;;11.26;70.97;102344.44;4955465;28;45460;-79
2021/10/10 05:38:09;;;;;;;;;55.50;42.00;;;;;11.25;70.84;102345.28;4937023;28;63731;-79
2021/10/10 05:40:34;;;;;;;;;57.50;41.75;;;;;11.17;70.73;102336.19;4954541;28;58563;-79
2021/10/10 05:43:00;;;;;;;;;52.50;40.75;;;;;11.20;70.62;102353.06;4938285;28;45889;-82
2021/10/10 05:45:25;;;;;;;;;55.25;42.50;;;;;11.19;70.69;102360.97;4938458;28;45380;-79
2021/10/10 05:47:51;;;;;;;;;49.25;41.00;;;;;11.11;70.78;102352.75;4938230;28;46563;-83
2021/10/10 05:50:16;;;;;;;;;47.00;40.00;;;;;11.15;70.62;102366.97;4937238;28;58309;-79
2021/10/10 05:52:42;;;;;;;;;55.50;40.25;;;;;11.12;70.94;102367.75;4955120;28;55489;-84
2021/10/10 05:55:09;;;;;;;;;58.00;45.00;;;;;11.10;70.65;102365.94;4938212;28;45322;-80
2021/10/10 05:57:49;;;;;;;;;58.75;41.75;;;;;11.08;70.70;102364.94;4937995;28;45739;-80
2021/10/10 06:00:15;;;;;;;;;55.50;44.00;;;;;11.07;70.88;102372.00;4939181;28;45588;-85
2021/10/10 06:02:42;;;;;;;;;53.00;41.75;;;;;11.06;70.79;102369.31;4930520;28;45528;-81
2021/10/10 06:05:08;;;;;;;;;57.50;42.25;;;;;11.00;70.69;102359.44;4929701;28;45567;-79
2021/10/10 06:07:34;;;;;;;;;55.25;42.00;;;;;11.03;70.79;102364.81;4937464;28;46466;-79
2021/10/10 06:09:59;;;;;;;;;59.50;45.00;;;;;11.01;70.86;102367.41;4938199;28;45827;-79
2021/10/10 06:12:24;;;;;;;;;59.25;46.25;;;;;11.02;70.72;102373.56;4954430;28;45503;-79
2021/10/10 06:14:51;;;;;;;;;54.75;43.50;;;;;11.00;70.87;102373.53;4938001;28;54981;-78
2021/10/10 06:17:19;;;;;;;;;52.50;42.75;;;;;10.99;71.06;102374.38;4937467;28;46231;-80
2021/10/10 06:19:45;;;;;;;;;60.00;43.50;;;;;11.00;70.72;102373.53;4920779;28;49950;-79
2021/10/10 06:22:11;;;;;;;;;61.00;43.50;;;;;10.96;70.94;102361.06;5018220;28;45476;-77
2021/10/10 06:24:36;;;;;;;;;51.25;42.50;;;;;11.00;71.08;102370.91;4937203;28;45725;-76
2021/10/10 06:27:02;;;;;;;;;54.25;44.00;;;;;11.00;71.05;102377.94;4953616;28;63026;-76
2021/10/10 06:29:27;;;;;;;;;56.50;43.50;;;;;11.00;71.08;102380.56;4954964;28;45302;-76
2021/10/10 06:31:53;;;;;;;;;58.50;45.75;;;;;11.01;71.05;102385.91;4954117;28;53132;-79
2021/10/10 06:34:18;;;;;;;;;58.50;44.50;;;;;11.03;71.04;102388.63;4941802;28;53184;-76
2021/10/10 06:36:43;;;;;;;;;65.25;45.25;;;;;11.04;71.31;102393.06;4956366;28;56534;-76
2021/10/10 06:39:09;;;;;;;;;58.25;43.75;;;;;11.05;71.30;102394.84;4955006;28;45367;-80
2021/10/10 06:41:34;;;;;;;;;60.50;46.50;;;;;11.09;70.94;102398.50;4954936;28;55371;-77
2021/10/10 06:44:00;;;;;;;;;60.25;45.75;;;;;11.10;71.58;102397.66;4954310;28;45558;-76
2021/10/10 06:46:26;;;;;;;;;59.00;45.00;;;;;11.13;71.43;102398.66;4952402;28;59273;-76
2021/10/10 06:48:51;;;;;;;;;59.75;47.00;;;;;11.15;71.88;102394.31;4949024;28;45574;-77
2021/10/10 06:51:16;;;;;;;;;64.75;49.25;;;;;11.20;71.84;102394.47;4935592;28;52313;-75
2021/10/10 06:53:42;;;;;;;;;58.00;46.50;;;;;11.24;71.85;102396.38;4951879;28;49892;-75
2021/10/10 06:56:07;;;;;;;;;60.50;47.25;;;;;11.24;71.97;102393.72;4951890;28;59942;-77
2021/10/10 06:58:33;;;;;;;;;63.75;49.00;;;;;11.28;71.77;102393.84;4935985;28;58387;-78
2021/10/10 07:00:58;;;;;;;;;65.75;46.50;;;;;11.37;72.92;102401.22;4954230;28;48097;-74
2021/10/10 07:03:23;;;;;;;;;59.25;45.00;;;;;11.34;73.34;102394.91;4954946;28;45432;-76
2021/10/10 07:05:49;;;;;;;;;61.00;46.25;;;;;11.27;73.60;102397.34;4953793;28;45727;-76
2021/10/10 07:08:14;;;;;;;;;57.25;45.25;;;;;11.21;73.24;102390.97;4946170;28;51086;-75
2021/10/10 07:10:40;;;;;;;;;62.75;48.25;;;;;11.04;73.92;102371.00;4944377;28;55862;-75
2021/10/10 07:13:05;;;;;;;;;58.00;44.75;;;;;11.08;74.44;102391.38;4953086;28;47644;-75
2021/10/10 07:15:32;;;;;;;;;61.25;47.00;;;;;10.97;75.34;102402.53;4951584;28;47040;-74
2021/10/10 07:18:00;;;;;;;;;63.25;46.50;;;;;10.92;74.86;102398.81;5012854;28;45641;-74
2021/10/10 07:20:56;;;;;;;;;59.50;45.75;;;;;10.84;75.16;102400.28;4949906;28;45833;-75
2021/10/10 07:23:34;;;;;;;;;54.50;43.50;;;;;10.83;75.99;102419.63;4947712;28;45594;-75
2021/10/10 07:25:57;;;;;;;;;64.00;47.25;;;;;10.76;76.03;102415.00;4947716;28;45701;-76
2021/10/10 07:28:23;;;;;;;;;64.00;47.75;;;;;10.73;75.40;102402.53;4947897;28;45917;-76
2021/10/10 07:30:48;;;;;;;;;63.25;46.25;;;;;10.81;75.30;102409.84;4932377;28;46359;-76
2021/10/10 07:33:17;;;;;;;;;60.50;47.75;;;;;10.92;75.07;102411.09;5066328;23;45840;-76
2021/10/10 07:35:43;;;;;;;;;59.25;47.75;;;;;11.07;74.90;102410.75;4988516;28;46835;-75
2021/10/10 07:38:08;;;;;;;;;64.75;49.00;;;;;11.16;74.55;102405.78;4989375;28;45442;-76
2021/10/10 07:40:34;;;;;;;;;65.25;48.00;;;;;11.20;74.76;102395.38;4984730;28;46178;-77
2021/10/10 07:42:59;;;;;;;;;62.00;46.25;;;;;11.33;74.32;102404.59;4967641;28;45754;-75
2021/10/10 07:45:25;;;;;;;;;61.00;45.50;;;;;11.46;74.28;102414.75;4988201;28;45609;-77
2021/10/10 07:47:51;;;;;;;;;64.75;49.50;;;;;11.54;73.88;102417.63;4970914;28;45551;-76
2021/10/10 07:50:21;;;;;;;;;57.00;45.50;;;;;11.61;74.03;102408.13;4970918;28;45559;-77
2021/10/10 07:52:47;;;;;;;;;59.25;46.00;;;;;11.73;73.73;102419.13;4970786;28;45471;-76
2021/10/10 07:55:12;;;;;;;;;62.25;46.00;;;;;11.81;73.62;102425.53;4953746;28;46913;-76
2021/10/10 07:57:38;;;;;;;;;66.50;48.75;;;;;11.88;73.46;102435.53;4983181;28;46637;-75
2021/10/10 08:00:07;;;;;;;;;55.75;43.25;;;;;11.96;73.58;102434.00;4988633;28;45481;-76
2021/10/10 08:02:33;;;;;;;;;60.75;46.00;;;;;12.04;73.41;102434.25;4984898;28;45489;-77
2021/10/10 08:04:58;;;;;;;;;65.75;47.25;;;;;12.03;72.95;102417.44;4988579;28;46145;-78
2021/10/10 08:07:24;;;;;;;;;61.75;49.00;;;;;12.13;73.18;102430.97;4958139;28;45523;-81
2021/10/10 08:09:49;;;;;;;;;68.50;49.25;;;;;12.24;73.23;102434.81;4983634;27;45486;-80
2021/10/10 08:12:15;;;;;;;;;67.25;49.50;;;;;12.29;72.96;102428.81;4977868;27;51510;-84
2021/10/10 08:14:40;;;;;;;;;57.50;47.00;;;;;12.41;72.78;102435.31;4965129;28;45748;-85
2021/10/10 08:17:06;;;;;;;;;61.50;46.75;;;;;12.48;72.56;102435.56;4965626;28;46219;-85
2021/10/10 08:19:31;;;;;;;;;57.50;45.75;;;;;12.57;72.50;102442.88;4947225;28;45504;-84
2021/10/10 08:21:56;;;;;;;;;56.75;41.50;;;;;12.63;72.30;102439.50;5030361;28;45648;-82
2021/10/10 08:24:23;;;;;;;;;58.75;47.25;;;;;12.70;72.11;102452.06;4986802;28;47248;-83
2021/10/10 08:26:48;;;;;;;;;58.75;46.50;;;;;12.73;72.06;102452.13;4989006;28;45563;-82
2021/10/10 08:29:15;;;;;;;;;62.25;46.25;;;;;12.79;72.05;102453.22;4973247;28;45727;-77
2021/10/10 08:31:40;;;;;;;;;56.75;45.50;;;;;12.84;71.79;102451.59;4989752;28;45498;-76
2021/10/10 08:34:06;;;;;;;;;56.50;43.00;;;;;12.88;72.23;102441.06;4987621;28;46853;-82
2021/10/10 08:36:31;;;;;;;;;60.00;47.25;;;;;12.94;71.87;102426.22;4972234;28;53678;-80
2021/10/10 08:38:56;;;;;;;;;59.75;45.00;;;;;12.97;71.57;102425.41;4990853;28;55122;-82
2021/10/10 08:41:24;;;;;;;;;67.50;48.25;;;;;13.05;71.63;102419.47;4974845;28;45553;-81
2021/10/10 08:43:50;;;;;;;;;60.25;47.25;;;;;13.11;71.84;102422.28;4990301;28;45711;-81
2021/10/10 08:46:22;;;;;;;;;59.50;46.75;;;;;13.15;71.58;102409.09;4952759;28;46195;-80
2021/10/10 08:48:49;;;;;;;;;61.00;47.00;;;;;13.23;71.35;102404.91;4957068;28;46006;-80
2021/10/10 08:51:14;;;;;;;;;61.50;47.00;;;;;13.26;71.14;102403.25;4957571;28;45691;-77
2021/10/10 08:53:39;;;;;;;;;59.50;47.25;;;;;13.36;71.36;102423.81;4989694;28;64292;-80
2021/10/10 08:56:05;;;;;;;;;61.75;46.00;;;;;13.41;71.45;102442.50;4969616;28;56425;-80
2021/10/10 08:58:36;;;;;;;;;55.50;45.25;;;;;13.45;71.45;102444.38;4954528;28;51625;-77
2021/10/10 09:01:04;;;;;;;;;59.50;47.75;;;;;13.52;71.08;102443.66;4967555;28;45655;-80
2021/10/10 09:03:30;;;;;;;;;63.50;49.00;;;;;13.60;71.03;102449.19;4972482;28;48422;-78
2021/10/10 09:05:56;;;;;;;;;57.75;48.00;;;;;13.60;71.12;102435.91;4968084;28;45545;-78
2021/10/10 09:08:22;;;;;;;;;69.25;52.25;;;;;13.65;70.65;102430.72;4976396;28;45984;-79
2021/10/10 09:11:00;;;;;;;;;62.50;48.25;;;;;13.68;70.52;102426.34;4986260;28;45732;-78
2021/10/10 09:13:36;;;;;;;;;67.75;49.50;;;;;13.76;70.76;102434.53;4988731;28;47266;-79
2021/10/10 09:16:01;;;;;;;;;66.25;51.75;;;;;13.81;70.67;102432.88;4988690;28;46090;-78
2021/10/10 09:18:37;;;;;;;;;63.00;48.75;;;;;13.85;70.14;102430.34;4987279;28;45549;-78
2021/10/10 09:21:31;;;;;;;;;60.50;49.00;;;;;13.92;70.37;102441.09;4985247;28;45698;-79
2021/10/10 09:23:57;;;;;;;;;65.50;51.75;;;;;13.99;69.91;102457.19;4988951;28;55129;-79
2021/10/10 09:26:22;;;;;;;;;63.75;46.75;;;;;14.05;70.30;102464.41;4989906;28;45528;-78
2021/10/10 09:28:48;;;;;;;;;62.50;50.50;;;;;14.11;70.44;102453.91;4973049;28;45509;-79
2021/10/10 09:31:14;;;;;;;;;69.50;54.25;;;;;14.18;69.98;102471.78;4955807;28;45517;-81
2021/10/10 09:33:47;;;;;;;;;68.00;53.00;;;;;14.21;70.03;102466.53;5045599;28;46465;-81
2021/10/10 09:36:25;;;;;;;;;62.50;48.25;;;;;14.22;69.63;102459.44;4961982;28;46563;-80
2021/10/10 09:39:00;;;;;;;;;59.25;47.25;;;;;14.28;69.61;102460.50;4965731;28;45460;-79
2021/10/10 09:44:07;;;;;;;;;64.75;50.00;;;;;14.35;69.82;102464.19;4966617;28;46462;-80
2021/10/10 09:46:32;;;;;;;;;60.50;47.75;;;;;14.33;69.42;102448.22;4964462;28;45600;-78
2021/10/10 09:48:58;;;;;;;;;64.50;48.75;;;;;14.40;69.61;102441.28;4964703;28;45573;-78
2021/10/10 09:51:30;;;;;;;;;55.75;45.00;;;;;14.41;69.66;102451.91;4967675;28;45893;-78
2021/10/10 09:54:06;;;;;;;;;61.00;48.00;;;;;14.46;69.52;102448.47;4969470;28;47492;-79
2021/10/10 09:56:32;;;;;;;;;59.50;47.00;;;;;14.50;69.26;102450.38;4968928;28;46123;-78
2021/10/10 09:58:57;;;;;;;;;57.25;44.75;;;;;14.55;69.39;102449.59;4968168;28;45573;-79
2021/10/10 10:01:23;;;;;;;;;62.50;48.00;;;;;14.60;69.44;102450.59;4966286;28;45507;-77
2021/10/10 10:04:05;;;;;;;;;57.25;45.75;;;;;14.67;69.61;102455.16;4968864;28;45604;-78
2021/10/10 10:06:33;;;;;;;;;64.75;49.00;;;;;14.71;69.38;102441.94;4970814;28;45493;-82
2021/10/10 10:09:03;;;;;;;;;60.25;47.00;;;;;14.80;68.92;102456.28;4969851;28;45555;-80
2021/10/10 10:11:49;;;;;;;;;57.00;45.00;;;;;14.86;68.90;102448.44;4969352;28;45497;-78
2021/10/10 10:14:16;;;;;;;;;64.00;48.50;;;;;14.86;69.18;102448.44;4969447;28;46791;-80
2021/10/10 10:16:44;;;;;;;;;57.50;45.00;;;;;14.94;69.00;102454.78;4968013;28;45878;-78
2021/10/10 10:19:11;;;;;;;;;53.00;43.75;;;;;14.98;68.85;102447.78;4970101;28;45524;-79
2021/10/10 10:21:36;;;;;;;;;50.25;41.75;;;;;15.03;68.66;102451.44;4970771;28;45544;-78
2021/10/10 10:24:02;;;;;;;;;59.75;44.75;;;;;15.07;68.61;102445.25;4951278;28;46657;-79
2021/10/10 10:26:32;;;;;;;;;62.00;47.00;;;;;15.08;68.26;102440.88;4969127;28;45495;-79
2021/10/10 10:28:58;;;;;;;;;47.00;37.25;;;;;15.11;68.22;102441.81;4970129;28;45460;-80
2021/10/10 10:31:23;;;;;;;;;49.25;37.00;;;;;15.19;67.55;102450.84;4968799;28;45703;-79
2021/10/10 10:33:49;;;;;;;;;32.33;30.67;;;;;15.24;67.78;102445.59;4966534;28;58490;-81
2021/10/10 10:36:14;;;;;;;;;36.00;32.00;;;;;15.29;67.81;102449.25;4969873;28;45803;-82
2021/10/10 10:38:47;;;;;;;;;40.75;35.00;;;;;15.32;67.19;102462.56;4967767;28;45601;-79
2021/10/10 10:41:46;;;;;;;;;38.67;32.00;;;;;15.39;66.89;102461.84;4967152;28;45546;-78
2021/10/10 10:44:34;;;;;;;;;29.00;29.00;;;;;15.43;66.48;102462.75;4967757;28;46509;-78
2021/10/10 10:47:07;;;;;;;;;36.33;32.33;;;;;15.52;67.29;102465.59;4955881;28;45456;-80
2021/10/10 10:49:45;;;;;;;;;33.67;31.00;;;;;15.59;66.97;102462.16;4969661;28;45420;-79
2021/10/10 10:52:23;;;;;;;;;32.67;30.33;;;;;15.64;65.67;102457.81;4969593;28;45389;-79
2021/10/10 10:54:53;;;;;;;;;37.00;32.00;;;;;15.69;66.00;102453.47;4970171;28;46597;-79
2021/10/10 10:57:31;;;;;;;;;31.00;29.33;;;;;15.75;65.80;102449.13;4951465;28;45470;-80
2021/10/10 11:00:02;;;;;;;;;32.67;30.67;;;;;15.77;65.86;102448.28;4967555;28;45504;-80
2021/10/10 11:02:58;;;;;;;;;34.67;29.33;;;;;15.87;65.78;102459.94;4968141;28;45863;-82
2021/10/10 11:05:39;;;;;;;;;29.67;26.67;;;;;15.93;66.06;102452.06;4981387;28;47635;-79
2021/10/10 11:08:29;;;;;;;;;35.33;32.00;;;;;15.98;64.87;102445.06;4967967;28;45570;-79
2021/10/10 11:11:03;;;;;;;;;26.00;25.00;;;;;16.05;64.79;102446.03;4968250;28;45649;-83
2021/10/10 11:13:29;;;;;;;;;26.00;23.33;;;;;16.11;64.34;102449.66;4966549;28;45447;-81